Time;durP1;ratioP1;P1;durP2;ratioP2;P2;SDS_P1;SDS_P2;PMS_P1;PMS_P2;Temp;Humidity;BMP_temperature;BMP_pressure;BME280_temperature;BME280_humidity;BME280_pressure;Samples;Min_cycle;Max_cycle;Signal;HPM_P1;HPM_P2
2022/03/21 00:02:40;;;;;;;5.87;5.47;;;;;;;;;;5108711;27;20296;-68
2022/03/21 00:05:29;;;;;;;6.37;5.87;;;;;;;;;;5122223;27;20270;-68
2022/03/21 00:08:19;;;;;;;5.60;5.20;;;;;;;;;;5115338;27;20243;-68
2022/03/21 00:11:06;;;;;;;6.00;5.50;;;;;;;;;;5117191;27;20214;-68
2022/03/21 00:13:54;;;;;;;5.90;5.40;;;;;;;;;;5118935;27;20267;-68
2022/03/21 00:16:41;;;;;;;5.90;5.40;;;;;;;;;;5107565;27;20573;-68
2022/03/21 00:19:29;;;;;;;6.10;5.63;;;;;;;;;;5121075;27;20216;-68
2022/03/21 00:22:17;;;;;;;5.97;5.57;;;;;;;;;;5118145;27;20216;-67
2022/03/21 00:25:05;;;;;;;6.07;5.63;;;;;;;;;;5113473;27;20702;-68
2022/03/21 00:27:52;;;;;;;5.70;5.30;;;;;;;;;;5118682;27;20295;-68
2022/03/21 00:30:42;;;;;;;6.23;5.80;;;;;;;;;;5114526;27;20310;-69
2022/03/21 00:33:29;;;;;;;6.27;5.77;;;;;;;;;;5115650;27;20193;-68
2022/03/21 00:36:17;;;;;;;6.07;5.47;;;;;;;;;;5120944;27;20236;-68
2022/03/21 00:39:04;;;;;;;6.27;5.47;;;;;;;;;;5117470;27;20735;-68
2022/03/21 00:41:51;;;;;;;6.13;5.63;;;;;;;;;;5121406;27;20294;-69
2022/03/21 00:44:38;;;;;;;6.43;5.93;;;;;;;;;;5143518;27;20578;-68
2022/03/21 00:47:25;;;;;;;6.53;6.03;;;;;;;;;;5156399;27;20328;-68
2022/03/21 00:50:14;;;;;;;6.13;5.63;;;;;;;;;;5156872;27;20203;-68
2022/03/21 00:53:02;;;;;;;6.50;5.93;;;;;;;;;;5156753;27;20768;-68
2022/03/21 00:55:50;;;;;;;6.27;5.77;;;;;;;;;;5156990;27;20245;-68
2022/03/21 00:58:37;;;;;;;6.80;6.03;;;;;;;;;;5149397;27;20229;-68
2022/03/21 01:01:24;;;;;;;6.57;5.97;;;;;;;;;;5158996;27;20202;-68
2022/03/21 01:04:11;;;;;;;6.67;6.17;;;;;;;;;;5159636;27;20209;-70
2022/03/21 01:06:58;;;;;;;6.07;5.57;;;;;;;;;;5161200;27;20255;-68
2022/03/21 01:09:46;;;;;;;6.23;5.63;;;;;;;;;;5145577;27;20286;-68
2022/03/21 01:12:33;;;;;;;6.90;6.40;;;;;;;;;;5158885;27;20288;-68
2022/03/21 01:15:22;;;;;;;6.63;6.13;;;;;;;;;;5159096;27;20293;-68
2022/03/21 01:18:09;;;;;;;6.47;5.97;;;;;;;;;;5150861;27;20213;-67
2022/03/21 01:20:56;;;;;;;6.10;5.60;;;;;;;;;;5158469;27;20360;-68
2022/03/21 01:23:43;;;;;;;6.47;5.83;;;;;;;;;;5156827;27;20705;-68
2022/03/21 01:26:31;;;;;;;6.30;5.80;;;;;;;;;;5153391;27;20290;-68
2022/03/21 01:29:18;;;;;;;7.00;6.40;;;;;;;;;;5163428;27;20662;-69
2022/03/21 01:32:06;;;;;;;7.27;6.30;;;;;;;;;;5154631;27;20199;-68
2022/03/21 01:34:53;;;;;;;6.27;5.77;;;;;;;;;;5153150;27;20887;-69
2022/03/21 01:37:40;;;;;;;6.50;6.00;;;;;;;;;;5147688;27;20212;-68
2022/03/21 01:40:27;;;;;;;6.37;5.87;;;;;;;;;;5155368;27;20221;-68
2022/03/21 01:43:15;;;;;;;6.03;5.53;;;;;;;;;;5158032;27;20230;-69
2022/03/21 01:46:02;;;;;;;6.00;5.50;;;;;;;;;;5159555;27;20201;-68
2022/03/21 01:48:49;;;;;;;6.23;5.73;;;;;;;;;;5152460;27;20296;-69
2022/03/21 01:51:37;;;;;;;6.37;5.87;;;;;;;;;;5148813;27;20304;-68
2022/03/21 01:57:29;;;;;;;5.73;5.33;;;;;;;;;;5147455;27;20231;-68
2022/03/21 02:00:17;;;;;;;6.00;5.50;;;;;;;;;;5146641;27;20251;-69
2022/03/21 02:03:05;;;;;;;6.17;5.67;;;;;;;;;;5150381;27;20245;-69
2022/03/21 02:05:52;;;;;;;6.00;5.50;;;;;;;;;;5155401;27;20206;-70
2022/03/21 02:08:39;;;;;;;5.80;5.40;;;;;;;;;;5149179;27;20243;-68
2022/03/21 02:11:26;;;;;;;5.87;5.47;;;;;;;;;;5151874;27;20261;-69
2022/03/21 02:14:13;;;;;;;6.40;5.90;;;;;;;;;;5147777;27;20212;-68
2022/03/21 02:17:01;;;;;;;5.63;5.23;;;;;;;;;;5155751;27;20258;-68
2022/03/21 02:19:49;;;;;;;6.17;5.73;;;;;;;;;;5157240;27;20291;-68
2022/03/21 02:22:50;;;;;;;6.50;5.73;;;;;;;;;;5155927;27;20679;-69
2022/03/21 02:25:42;;;;;;;6.00;5.60;;;;;;;;;;5155000;27;20218;-68
2022/03/21 02:28:32;;;;;;;5.87;5.37;;;;;;;;;;5152448;27;20638;-68
2022/03/21 02:31:19;;;;;;;5.50;5.10;;;;;;;;;;5155482;27;20213;-68
2022/03/21 02:34:05;;;;;;;6.17;5.67;;;;;;;;;;5162030;27;20232;-72
2022/03/21 02:36:56;;;;;;;6.37;5.87;;;;;;;;;;5153983;27;20317;-68
2022/03/21 02:39:44;;;;;;;6.20;5.70;;;;;;;;;;5158132;27;20200;-68
2022/03/21 02:42:32;;;;;;;5.93;5.47;;;;;;;;;;5163479;27;20711;-68
2022/03/21 02:45:20;;;;;;;6.20;5.70;;;;;;;;;;5154914;27;20390;-68
2022/03/21 02:48:07;;;;;;;5.60;5.20;;;;;;;;;;5162266;27;20686;-69
2022/03/21 02:51:00;;;;;;;5.67;5.27;;;;;;;;;;5158264;27;20739;-68
2022/03/21 02:53:48;;;;;;;5.97;5.47;;;;;;;;;;5159725;27;20278;-68
2022/03/21 02:56:35;;;;;;;6.00;5.60;;;;;;;;;;5154920;27;20325;-69
2022/03/21 02:59:23;;;;;;;5.90;5.50;;;;;;;;;;5163563;27;20236;-70
2022/03/21 03:02:10;;;;;;;6.00;5.60;;;;;;;;;;5153394;27;20237;-68
2022/03/21 03:04:57;;;;;;;6.03;5.53;;;;;;;;;;5158377;27;20197;-69
2022/03/21 03:07:44;;;;;;;6.30;5.80;;;;;;;;;;5158100;27;20341;-69
2022/03/21 03:10:31;;;;;;;5.37;5.07;;;;;;;;;;5162327;27;20278;-68
2022/03/21 03:13:18;;;;;;;5.70;5.30;;;;;;;;;;5161873;27;20318;-69
2022/03/21 03:16:07;;;;;;;5.57;5.17;;;;;;;;;;5152810;27;20312;-77
2022/03/21 03:18:53;;;;;;;5.43;5.03;;;;;;;;;;5158599;27;20232;-69
2022/03/21 03:21:44;;;;;;;5.90;5.40;;;;;;;;;;5155318;27;20227;-68
2022/03/21 03:24:33;;;;;;;5.50;5.10;;;;;;;;;;5155107;27;20654;-69
2022/03/21 03:27:20;;;;;;;5.90;5.50;;;;;;;;;;5160728;27;20204;-68
2022/03/21 03:30:08;;;;;;;5.57;5.17;;;;;;;;;;5161640;27;20292;-68
2022/03/21 03:32:56;;;;;;;5.40;5.00;;;;;;;;;;5167556;27;20260;-68
2022/03/21 03:35:43;;;;;;;5.73;5.33;;;;;;;;;;5158861;27;20235;-68
2022/03/21 03:38:30;;;;;;;5.90;5.50;;;;;;;;;;5163580;27;20262;-68
2022/03/21 03:41:17;;;;;;;5.50;5.10;;;;;;;;;;5158796;27;20341;-67
2022/03/21 03:44:05;;;;;;;5.50;5.10;;;;;;;;;;5160488;27;20240;-68
2022/03/21 03:46:51;;;;;;;4.80;4.50;;;;;;;;;;5158037;27;20264;-68
2022/03/21 03:49:40;;;;;;;5.53;5.13;;;;;;;;;;5155583;27;20206;-69
2022/03/21 03:52:27;;;;;;;5.37;4.97;;;;;;;;;;5159678;27;20320;-68
2022/03/21 03:55:14;;;;;;;5.47;5.07;;;;;;;;;;5160432;27;20206;-68
2022/03/21 03:58:01;;;;;;;5.10;4.70;;;;;;;;;;5152324;27;20217;-68
2022/03/21 04:00:49;;;;;;;5.53;5.13;;;;;;;;;;5160482;27;20787;-68
2022/03/21 04:03:48;;;;;;;5.50;5.10;;;;;;;;;;5150053;27;20209;-68
2022/03/21 04:06:36;;;;;;;5.70;5.30;;;;;;;;;;5153290;27;20674;-68
2022/03/21 04:09:23;;;;;;;5.50;5.17;;;;;;;;;;5166386;27;20288;-68
2022/03/21 04:12:11;;;;;;;5.63;5.23;;;;;;;;;;5157720;27;20203;-68
2022/03/21 04:14:57;;;;;;;5.50;5.10;;;;;;;;;;5141598;27;20210;-69
2022/03/21 04:17:44;;;;;;;5.77;5.37;;;;;;;;;;5150116;27;20349;-68
2022/03/21 04:20:32;;;;;;;5.20;4.80;;;;;;;;;;5163690;27;20208;-68
2022/03/21 04:23:21;;;;;;;5.23;4.93;;;;;;;;;;5159007;27;20313;-70
2022/03/21 04:26:07;;;;;;;5.47;4.97;;;;;;;;;;5154945;27;20262;-68
2022/03/21 04:28:56;;;;;;;5.27;4.87;;;;;;;;;;5156589;27;20277;-68
2022/03/21 04:31:42;;;;;;;5.30;5.00;;;;;;;;;;5161945;27;20197;-68
2022/03/21 04:34:29;;;;;;;5.17;4.77;;;;;;;;;;5160281;27;20839;-68
2022/03/21 04:37:16;;;;;;;5.03;4.73;;;;;;;;;;5161208;27;20727;-68
2022/03/21 04:40:07;;;;;;;5.50;5.00;;;;;;;;;;5154682;27;20286;-68
2022/03/21 04:42:54;;;;;;;5.93;5.40;;;;;;;;;;5154345;27;20205;-68
2022/03/21 04:45:54;;;;;;;5.73;5.33;;;;;;;;;;5119418;27;20551;-68
2022/03/21 04:48:41;;;;;;;6.30;5.80;;;;;;;;;;5113159;28;21028;-68
2022/03/21 04:51:28;;;;;;;6.40;5.90;;;;;;;;;;5115712;27;20202;-68
2022/03/21 04:54:15;;;;;;;6.87;6.20;;;;;;;;;;5085093;28;20238;-68
2022/03/21 04:57:05;;;;;;;6.40;5.80;;;;;;;;;;5088295;28;20203;-68
2022/03/21 04:59:53;;;;;;;6.10;5.70;;;;;;;;;;5092185;28;20300;-68
2022/03/21 05:02:42;;;;;;;6.77;6.13;;;;;;;;;;5092756;28;20218;-68
2022/03/21 05:05:29;;;;;;;6.40;5.90;;;;;;;;;;5093444;28;20230;-68
2022/03/21 05:08:16;;;;;;;6.60;6.10;;;;;;;;;;5086013;28;20316;-69
2022/03/21 05:11:03;;;;;;;6.77;6.17;;;;;;;;;;5091271;28;20268;-68
2022/03/21 05:13:50;;;;;;;6.30;5.80;;;;;;;;;;5082870;28;20724;-68
2022/03/21 05:16:38;;;;;;;6.10;5.63;;;;;;;;;;5093310;28;20207;-69
2022/03/21 05:19:26;;;;;;;6.10;5.60;;;;;;;;;;5095050;28;20331;-68
2022/03/21 05:22:13;;;;;;;6.33;5.77;;;;;;;;;;5087848;28;20281;-70
2022/03/21 05:31:06;;;;;;;6.57;6.03;;;;;;;;;;5090788;28;20212;-68
2022/03/21 05:36:59;;;;;;;6.53;6.03;;;;;;;;;;5085566;28;20203;-68
2022/03/21 05:42:50;;;;;;;6.90;6.30;;;;;;;;;;5087666;28;20286;-68
2022/03/21 05:45:37;;;;;;;7.00;6.40;;;;;;;;;;5095982;28;20232;-68
2022/03/21 05:51:31;;;;;;;6.97;6.37;;;;;;;;;;5094306;28;20241;-68
2022/03/21 05:54:19;;;;;;;7.30;6.60;;;;;;;;;;5087710;28;20204;-68
2022/03/21 05:57:06;;;;;;;6.43;5.93;;;;;;;;;;5077512;28;20739;-68
2022/03/21 06:02:57;;;;;;;6.77;6.17;;;;;;;;;;5079034;28;20243;-69
2022/03/21 06:05:44;;;;;;;6.20;5.70;;;;;;;;;;5073670;28;21038;-68
2022/03/21 06:08:31;;;;;;;5.93;5.43;;;;;;;;;;5070512;28;20607;-68
2022/03/21 06:11:20;;;;;;;6.87;6.13;;;;;;;;;;5076652;28;20209;-68
2022/03/21 06:14:08;;;;;;;6.20;5.80;;;;;;;;;;5077925;28;20289;-68
2022/03/21 06:16:55;;;;;;;6.50;6.00;;;;;;;;;;5076792;28;20219;-68
2022/03/21 06:19:42;;;;;;;6.30;5.80;;;;;;;;;;5072807;28;20225;-68
2022/03/21 06:22:29;;;;;;;5.80;5.40;;;;;;;;;;5075193;28;20682;-68
2022/03/21 06:25:16;;;;;;;6.00;5.50;;;;;;;;;;5078673;28;20293;-68
2022/03/21 06:28:04;;;;;;;5.93;5.53;;;;;;;;;;5066944;28;20296;-68
2022/03/21 06:30:51;;;;;;;5.83;5.33;;;;;;;;;;5086050;28;20202;-69
2022/03/21 06:33:38;;;;;;;5.90;5.50;;;;;;;;;;5077485;28;20232;-68
2022/03/21 06:36:25;;;;;;;6.20;5.70;;;;;;;;;;5071245;28;20212;-68
2022/03/21 06:39:12;;;;;;;5.23;4.93;;;;;;;;;;5076027;28;20292;-68
2022/03/21 06:41:59;;;;;;;5.30;5.00;;;;;;;;;;5075940;28;20214;-69
2022/03/21 06:44:48;;;;;;;5.93;5.53;;;;;;;;;;5079797;28;20272;-68
2022/03/21 06:47:35;;;;;;;5.73;5.33;;;;;;;;;;5072352;28;20691;-68
2022/03/21 06:50:21;;;;;;;5.93;5.37;;;;;;;;;;5073510;28;20225;-68
2022/03/21 06:53:08;;;;;;;5.23;4.93;;;;;;;;;;5078761;28;20272;-65
2022/03/21 06:55:55;;;;;;;5.63;5.23;;;;;;;;;;5071082;28;20293;-66
2022/03/21 06:58:42;;;;;;;6.20;5.70;;;;;;;;;;5078643;28;20215;-66
2022/03/21 07:01:33;;;;;;;5.80;5.30;;;;;;;;;;5078680;28;20721;-66
2022/03/21 07:04:21;;;;;;;5.90;5.50;;;;;;;;;;5073393;28;20293;-66
2022/03/21 07:07:07;;;;;;;5.60;5.03;;;;;;;;;;5073617;28;20646;-66
2022/03/21 07:09:55;;;;;;;6.15;5.70;;;;;;;;;;5076752;28;20684;-66
2022/03/21 07:12:42;;;;;;;5.28;4.97;;;;;;;;;;5076960;28;20693;-70
2022/03/21 07:15:29;;;;;;;5.45;5.05;;;;;;;;;;5077536;28;20206;-66
2022/03/21 07:18:17;;;;;;;5.10;4.78;;;;;;;;;;5074671;28;20289;-66
2022/03/21 07:21:04;;;;;;;4.88;4.57;;;;;;;;;;5082613;28;20287;-66
2022/03/21 07:23:51;;;;;;;5.10;4.70;;;;;;;;;;5080691;28;20204;-63
2022/03/21 07:26:38;;;;;;;5.45;4.97;;;;;;;;;;5076201;28;20761;-64
2022/03/21 07:29:25;;;;;;;5.10;4.70;;;;;;;;;;5078892;28;20216;-65
2022/03/21 07:32:12;;;;;;;5.22;4.90;;;;;;;;;;5070569;28;20211;-65
2022/03/21 07:35:00;;;;;;;5.60;5.10;;;;;;;;;;5079113;28;20206;-65
2022/03/21 07:37:50;;;;;;;5.15;4.85;;;;;;;;;;5070259;28;20234;-64
2022/03/21 07:40:37;;;;;;;5.32;4.93;;;;;;;;;;5073056;28;20240;-66
2022/03/21 07:43:24;;;;;;;5.15;4.75;;;;;;;;;;5077333;28;20663;-64
2022/03/21 07:49:16;;;;;;;4.95;4.55;;;;;;;;;;5076426;28;20224;-65
2022/03/21 07:52:05;;;;;;;4.70;4.40;;;;;;;;;;5074084;28;20679;-64
2022/03/21 07:54:54;;;;;;;4.53;4.22;;;;;;;;;;5076127;28;20211;-65
2022/03/21 07:57:41;;;;;;;5.60;5.15;;;;;;;;;;5072298;28;20207;-64
2022/03/21 08:00:30;;;;;;;4.80;4.50;;;;;;;;;;5070062;28;20294;-64
2022/03/21 08:03:17;;;;;;;5.10;4.80;;;;;;;;;;5075889;28;20207;-64
2022/03/21 08:06:08;;;;;;;5.07;4.78;;;;;;;;;;5075795;28;20279;-64
2022/03/21 08:08:57;;;;;;;4.90;4.60;;;;;;;;;;5078187;28;20586;-65
2022/03/21 08:11:45;;;;;;;4.95;4.63;;;;;;;;;;5073272;28;20207;-65
2022/03/21 08:14:32;;;;;;;5.20;4.82;;;;;;;;;;5073249;28;20203;-67
2022/03/21 08:17:19;;;;;;;5.10;4.80;;;;;;;;;;5072856;28;20227;-67
2022/03/21 08:20:08;;;;;;;4.68;4.38;;;;;;;;;;5065576;28;20298;-67
2022/03/21 08:22:55;;;;;;;5.75;5.15;;;;;;;;;;5070059;28;20683;-67
2022/03/21 08:25:46;;;;;;;5.03;4.63;;;;;;;;;;5082428;28;20772;-67
2022/03/21 08:28:33;;;;;;;4.97;4.68;;;;;;;;;;5061492;28;20212;-67
2022/03/21 08:31:20;;;;;;;5.28;4.88;;;;;;;;;;5073584;28;20673;-67
2022/03/21 08:34:07;;;;;;;5.32;5.03;;;;;;;;;;5069588;28;20686;-67
2022/03/21 08:36:54;;;;;;;5.10;4.72;;;;;;;;;;5080292;28;20535;-67
2022/03/21 08:39:41;;;;;;;5.18;4.88;;;;;;;;;;5082870;28;20588;-67
2022/03/21 08:42:29;;;;;;;5.43;5.05;;;;;;;;;;5077658;28;20382;-67
2022/03/21 08:45:16;;;;;;;5.05;4.65;;;;;;;;;;5073367;28;20248;-67
2022/03/21 08:48:03;;;;;;;4.95;4.65;;;;;;;;;;5074300;28;20249;-67
2022/03/21 08:50:50;;;;;;;5.43;4.93;;;;;;;;;;5073295;28;20203;-67
2022/03/21 08:53:38;;;;;;;5.50;5.10;;;;;;;;;;5073882;28;20259;-66
2022/03/21 08:56:28;;;;;;;5.10;4.70;;;;;;;;;;5068717;28;20217;-66
2022/03/21 08:59:16;;;;;;;5.43;5.03;;;;;;;;;;5068393;28;20288;-66
2022/03/21 09:02:03;;;;;;;5.43;5.03;;;;;;;;;;5068172;28;20701;-66
2022/03/21 09:04:51;;;;;;;5.37;4.97;;;;;;;;;;5075465;28;20241;-66
2022/03/21 09:07:37;;;;;;;5.70;5.20;;;;;;;;;;5076929;28;20739;-67
2022/03/21 09:10:24;;;;;;;5.33;4.93;;;;;;;;;;5066345;28;20248;-67
2022/03/21 09:13:11;;;;;;;5.00;4.70;;;;;;;;;;5072839;28;20214;-67
2022/03/21 09:15:59;;;;;;;5.00;4.70;;;;;;;;;;5073690;28;20295;-67
2022/03/21 09:18:46;;;;;;;5.00;4.70;;;;;;;;;;5070660;28;20213;-67
2022/03/21 09:21:33;;;;;;;5.33;4.93;;;;;;;;;;5075030;28;20615;-67
2022/03/21 09:24:21;;;;;;;5.63;5.17;;;;;;;;;;5073944;28;20749;-67
2022/03/21 09:27:08;;;;;;;5.57;5.03;;;;;;;;;;5078900;28;20337;-68
2022/03/21 09:29:55;;;;;;;5.17;4.77;;;;;;;;;;5079743;28;20245;-67
2022/03/21 09:32:43;;;;;;;5.43;5.03;;;;;;;;;;5080546;28;20219;-66
2022/03/21 09:35:30;;;;;;;5.23;4.93;;;;;;;;;;5077643;28;20650;-67
2022/03/21 09:38:18;;;;;;;5.70;4.30;;;;;;;;;;5082754;28;20298;-66
2022/03/21 09:41:05;;;;;;;5.43;5.03;;;;;;;;;;5068253;28;20210;-67
2022/03/21 09:43:52;;;;;;;5.40;5.00;;;;;;;;;;5075937;28;20588;-66
2022/03/21 09:46:41;;;;;;;5.60;5.10;;;;;;;;;;5088093;28;20315;-67
2022/03/21 09:49:30;;;;;;;5.20;4.80;;;;;;;;;;5084017;28;20295;-66
2022/03/21 09:52:18;;;;;;;5.27;4.87;;;;;;;;;;5069984;28;20583;-66
2022/03/21 09:55:07;;;;;;;5.27;4.87;;;;;;;;;;5073546;28;20248;-66
2022/03/21 09:57:54;;;;;;;4.93;4.63;;;;;;;;;;5082906;28;20223;-66
2022/03/21 10:00:42;;;;;;;4.83;4.53;;;;;;;;;;5081288;28;20233;-67
2022/03/21 10:03:29;;;;;;;5.53;5.13;;;;;;;;;;5080462;28;20207;-67
2022/03/21 10:06:37;;;;;;;5.20;4.90;;;;;;;;;;5078412;28;20691;-67
2022/03/21 10:09:25;;;;;;;5.57;5.13;;;;;;;;;;5075578;28;20209;-66
2022/03/21 10:12:12;;;;;;;5.40;4.90;;;;;;;;;;5072725;28;20204;-67
2022/03/21 10:15:00;;;;;;;5.23;4.83;;;;;;;;;;5081779;28;20209;-68
2022/03/21 10:18:05;;;;;;;6.00;5.50;;;;;;;;;;5075822;28;20213;-66
2022/03/21 10:20:52;;;;;;;5.10;4.73;;;;;;;;;;5070844;28;20229;-68
2022/03/21 10:23:40;;;;;;;5.40;5.00;;;;;;;;;;5073186;28;20204;-67
2022/03/21 10:26:29;;;;;;;5.30;4.90;;;;;;;;;;5081095;28;20255;-67
2022/03/21 10:29:16;;;;;;;5.40;5.00;;;;;;;;;;5079448;28;20233;-67
2022/03/21 10:32:04;;;;;;;5.13;4.73;;;;;;;;;;5078045;28;20199;-68
2022/03/21 10:35:00;;;;;;;5.53;5.03;;;;;;;;;;5076476;28;20219;-67
2022/03/21 10:37:50;;;;;;;5.23;4.83;;;;;;;;;;5078520;28;20231;-66
2022/03/21 10:40:44;;;;;;;5.17;4.77;;;;;;;;;;5078316;28;20356;-68
2022/03/21 10:43:31;;;;;;;5.20;4.80;;;;;;;;;;5076000;28;20295;-67
2022/03/21 10:46:22;;;;;;;5.90;5.30;;;;;;;;;;5081134;28;20968;-67
2022/03/21 10:49:10;;;;;;;5.00;4.60;;;;;;;;;;5077260;28;20676;-67
2022/03/21 10:51:57;;;;;;;5.07;4.77;;;;;;;;;;5068575;28;20318;-67
2022/03/21 10:54:48;;;;;;;5.33;4.93;;;;;;;;;;5079053;28;20288;-69
2022/03/21 10:57:37;;;;;;;5.33;4.83;;;;;;;;;;5073178;28;20598;-67
2022/03/21 11:00:26;;;;;;;4.90;4.50;;;;;;;;;;5080042;28;20291;-67
2022/03/21 11:03:15;;;;;;;5.10;4.70;;;;;;;;;;5070923;28;20204;-67
2022/03/21 11:06:03;;;;;;;4.97;4.50;;;;;;;;;;5071703;28;20227;-68
2022/03/21 11:08:52;;;;;;;5.33;4.93;;;;;;;;;;5074387;28;20633;-66
2022/03/21 11:11:39;;;;;;;5.20;4.80;;;;;;;;;;5072845;28;20241;-67
2022/03/21 11:14:28;;;;;;;5.33;4.93;;;;;;;;;;5077996;28;20234;-67
2022/03/21 11:17:15;;;;;;;5.20;4.80;;;;;;;;;;5073066;28;20210;-66
2022/03/21 11:20:04;;;;;;;5.43;5.00;;;;;;;;;;5074343;28;20203;-67
2022/03/21 11:22:52;;;;;;;5.20;4.80;;;;;;;;;;5079719;28;20299;-66
2022/03/21 11:25:45;;;;;;;5.33;4.93;;;;;;;;;;5072043;28;20737;-68
2022/03/21 11:29:11;;;;;;;4.93;4.53;;;;;;;;;;5073599;28;20730;-66
2022/03/21 11:32:22;;;;;;;4.93;4.53;;;;;;;;;;5072167;28;20673;-66
2022/03/21 11:35:13;;;;;;;4.87;4.57;;;;;;;;;;5083288;28;20686;-68
2022/03/21 11:38:32;;;;;;;5.13;4.73;;;;;;;;;;5073849;28;20288;-66
2022/03/21 11:41:21;;;;;;;5.27;4.80;;;;;;;;;;5080507;28;20235;-66
2022/03/21 11:44:14;;;;;;;5.20;4.80;;;;;;;;;;5065363;28;20239;-66
2022/03/21 11:47:24;;;;;;;5.00;4.60;;;;;;;;;;5074679;28;20234;-67
2022/03/21 11:50:26;;;;;;;5.10;4.70;;;;;;;;;;5079749;28;20203;-66
2022/03/21 11:53:14;;;;;;;4.63;4.33;;;;;;;;;;5078031;28;20229;-68
2022/03/21 11:56:01;;;;;;;5.00;4.50;;;;;;;;;;5073043;28;20200;-67
2022/03/21 11:58:48;;;;;;;5.07;4.67;;;;;;;;;;5079751;28;20207;-66
2022/03/21 12:01:35;;;;;;;5.00;4.60;;;;;;;;;;5073777;28;20885;-66
2022/03/21 12:04:30;;;;;;;4.53;4.23;;;;;;;;;;5079729;28;20757;-66
2022/03/21 12:07:31;;;;;;;5.10;4.70;;;;;;;;;;5076094;28;20234;-66
2022/03/21 12:10:37;;;;;;;4.90;4.60;;;;;;;;;;5081229;28;20212;-67
2022/03/21 12:13:24;;;;;;;4.87;4.40;;;;;;;;;;5078621;28;20231;-66
2022/03/21 12:16:18;;;;;;;4.43;4.13;;;;;;;;;;5071475;28;20330;-66
2022/03/21 12:19:05;;;;;;;4.97;4.63;;;;;;;;;;5077040;28;20294;-66
2022/03/21 12:22:28;;;;;;;4.60;4.30;;;;;;;;;;5078325;28;20863;-66
2022/03/21 12:25:20;;;;;;;4.43;4.13;;;;;;;;;;5073437;28;20595;-75
2022/03/21 12:28:19;;;;;;;4.33;4.10;;;;;;;;;;5075320;28;20333;-66
2022/03/21 12:31:21;;;;;;;4.80;4.40;;;;;;;;;;5077925;28;20694;-67
2022/03/21 12:34:36;;;;;;;4.87;4.50;;;;;;;;;;5073059;28;20202;-66
2022/03/21 12:37:41;;;;;;;4.60;4.30;;;;;;;;;;5074324;28;20205;-75
2022/03/21 12:40:29;;;;;;;4.60;4.30;;;;;;;;;;5070682;28;20253;-66
2022/03/21 12:43:19;;;;;;;4.60;4.30;;;;;;;;;;5064848;28;20771;-67
2022/03/21 12:46:11;;;;;;;4.63;4.23;;;;;;;;;;5080218;28;20226;-66
2022/03/21 12:49:00;;;;;;;4.73;4.33;;;;;;;;;;5075286;28;20684;-66
2022/03/21 12:51:47;;;;;;;4.40;4.10;;;;;;;;;;5075103;28;20614;-66
2022/03/21 12:54:46;;;;;;;4.87;4.47;;;;;;;;;;5079412;28;20208;-68
2022/03/21 12:57:53;;;;;;;4.90;4.53;;;;;;;;;;5072172;28;20230;-66
2022/03/21 13:00:41;;;;;;;4.53;4.13;;;;;;;;;;5077010;28;20210;-67
2022/03/21 13:03:29;;;;;;;4.47;4.17;;;;;;;;;;5071507;28;20217;-66
2022/03/21 13:12:24;;;;;;;4.20;3.90;;;;;;;;;;5078923;28;20215;-65
2022/03/21 13:15:13;;;;;;;4.83;4.37;;;;;;;;;;5081586;28;20250;-65
2022/03/21 13:18:03;;;;;;;4.43;4.03;;;;;;;;;;5075809;28;20211;-66
2022/03/21 13:20:50;;;;;;;4.60;4.30;;;;;;;;;;5078101;28;20204;-65
2022/03/21 13:23:37;;;;;;;4.60;4.30;;;;;;;;;;5073941;28;20264;-65
2022/03/21 13:26:26;;;;;;;4.20;3.90;;;;;;;;;;5085237;28;20693;-65
2022/03/21 13:29:14;;;;;;;4.40;4.10;;;;;;;;;;5078675;28;20225;-65
2022/03/21 13:32:03;;;;;;;4.00;3.70;;;;;;;;;;5070602;28;20224;-65
2022/03/21 13:34:50;;;;;;;5.13;3.97;;;;;;;;;;5082771;28;20679;-65
2022/03/21 13:37:37;;;;;;;4.70;4.30;;;;;;;;;;5074621;28;20287;-66
2022/03/21 13:40:27;;;;;;;4.20;3.80;;;;;;;;;;5079188;28;20293;-66
2022/03/21 13:43:18;;;;;;;4.10;3.80;;;;;;;;;;5082262;28;20209;-66
2022/03/21 13:46:04;;;;;;;4.60;4.20;;;;;;;;;;5082061;28;20299;-66
2022/03/21 13:48:53;;;;;;;4.27;3.93;;;;;;;;;;5075136;28;20352;-65
2022/03/21 13:51:43;;;;;;;4.70;4.40;;;;;;;;;;5079165;28;20312;-68
2022/03/21 13:54:48;;;;;;;4.50;4.10;;;;;;;;;;5075660;28;20215;-66
2022/03/21 13:57:46;;;;;;;4.37;4.07;;;;;;;;;;5067895;28;20283;-67
2022/03/21 14:00:35;;;;;;;4.47;4.17;;;;;;;;;;5077243;27;20565;-66
2022/03/21 14:03:36;;;;;;;4.23;3.93;;;;;;;;;;5077049;28;20289;-66
2022/03/21 14:06:24;;;;;;;4.43;4.13;;;;;;;;;;5084211;28;20276;-69
2022/03/21 14:09:14;;;;;;;4.83;4.43;;;;;;;;;;5067586;28;20220;-66
2022/03/21 14:12:06;;;;;;;4.23;3.93;;;;;;;;;;5077466;28;20290;-67
2022/03/21 14:14:53;;;;;;;4.30;3.90;;;;;;;;;;5083638;28;20207;-66
2022/03/21 14:17:40;;;;;;;4.57;4.17;;;;;;;;;;5076937;28;20288;-68
2022/03/21 14:20:27;;;;;;;4.10;3.80;;;;;;;;;;5080524;28;20268;-66
2022/03/21 14:23:15;;;;;;;4.47;4.17;;;;;;;;;;5074643;28;20345;-68
2022/03/21 14:29:19;;;;;;;4.40;4.00;;;;;;;;;;5013535;28;20222;-66
2022/03/21 14:32:07;;;;;;;4.37;4.07;;;;;;;;;;5082149;28;20203;-67
2022/03/21 14:34:54;;;;;;;4.53;4.13;;;;;;;;;;5069642;28;20205;-66
2022/03/21 14:37:41;;;;;;;4.23;3.93;;;;;;;;;;5074066;28;20246;-67
2022/03/21 14:40:29;;;;;;;5.00;4.57;;;;;;;;;;5073627;28;20261;-66
2022/03/21 14:43:16;;;;;;;4.70;4.40;;;;;;;;;;5075727;28;20280;-66
2022/03/21 14:46:05;;;;;;;4.40;4.10;;;;;;;;;;5077874;28;20244;-66
2022/03/21 14:48:52;;;;;;;4.13;3.83;;;;;;;;;;5073128;28;20207;-66
2022/03/21 14:51:39;;;;;;;5.53;4.40;;;;;;;;;;5077893;28;20334;-66
2022/03/21 14:54:26;;;;;;;3.80;3.60;;;;;;;;;;5078672;28;20256;-66
2022/03/21 14:57:14;;;;;;;4.83;4.43;;;;;;;;;;5075597;28;20211;-67
2022/03/21 15:00:02;;;;;;;4.40;4.10;;;;;;;;;;5080060;28;20213;-66
2022/03/21 15:02:49;;;;;;;4.53;4.23;;;;;;;;;;5079834;28;20207;-66
2022/03/21 15:05:40;;;;;;;4.67;4.27;;;;;;;;;;5073454;28;20294;-66
2022/03/21 15:08:28;;;;;;;4.50;4.20;;;;;;;;;;5079730;28;20240;-66
2022/03/21 15:11:15;;;;;;;4.70;4.40;;;;;;;;;;5071006;28;20530;-66
2022/03/21 15:14:04;;;;;;;4.90;4.50;;;;;;;;;;5078338;28;20326;-66
2022/03/21 15:16:50;;;;;;;4.43;4.10;;;;;;;;;;5075845;28;20328;-67
2022/03/21 15:19:37;;;;;;;4.33;4.03;;;;;;;;;;5077265;28;20713;-66
2022/03/21 15:22:24;;;;;;;4.63;4.23;;;;;;;;;;5075263;28;20696;-67
2022/03/21 15:25:13;;;;;;;4.60;4.20;;;;;;;;;;5080438;28;20749;-66
2022/03/21 15:28:00;;;;;;;4.97;4.47;;;;;;;;;;5074011;28;20396;-67
2022/03/21 15:30:48;;;;;;;4.20;3.90;;;;;;;;;;5076063;28;20208;-67
2022/03/21 15:33:35;;;;;;;4.50;4.10;;;;;;;;;;5078003;28;20287;-67
2022/03/21 15:42:36;;;;;;;5.10;4.70;;;;;;;;;;5074960;28;20200;-66
2022/03/21 15:45:23;;;;;;;5.00;4.60;;;;;;;;;;5075773;28;20233;-67
2022/03/21 15:48:11;;;;;;;5.03;4.67;;;;;;;;;;5063368;28;20229;-67
2022/03/21 15:50:58;;;;;;;4.53;4.23;;;;;;;;;;5078110;28;20212;-67
2022/03/21 15:53:45;;;;;;;5.17;4.73;;;;;;;;;;5080629;28;20299;-67
2022/03/21 15:56:32;;;;;;;5.00;4.67;;;;;;;;;;5072914;28;20802;-67
2022/03/21 15:59:19;;;;;;;5.50;4.77;;;;;;;;;;5067948;28;20286;-67
2022/03/21 16:02:06;;;;;;;4.97;4.57;;;;;;;;;;5070598;28;20244;-67
2022/03/21 16:04:54;;;;;;;4.97;4.60;;;;;;;;;;5078285;28;20598;-67
2022/03/21 16:07:42;;;;;;;5.03;4.67;;;;;;;;;;5069380;28;20352;-68
2022/03/21 16:10:30;;;;;;;5.27;4.87;;;;;;;;;;5071758;28;20220;-76
2022/03/21 16:13:17;;;;;;;5.40;5.00;;;;;;;;;;5080574;28;20218;-67
2022/03/21 16:16:05;;;;;;;5.60;5.07;;;;;;;;;;5077051;28;20225;-67
2022/03/21 16:18:52;;;;;;;5.30;4.90;;;;;;;;;;5073151;28;20556;-67
2022/03/21 16:21:40;;;;;;;5.13;4.73;;;;;;;;;;5080556;28;20656;-67
2022/03/21 16:24:27;;;;;;;5.00;4.60;;;;;;;;;;5078830;28;20278;-68
2022/03/21 16:27:14;;;;;;;5.10;4.70;;;;;;;;;;5075291;28;20827;-68
2022/03/21 16:30:02;;;;;;;5.30;4.80;;;;;;;;;;5077828;28;20300;-67
2022/03/21 16:32:49;;;;;;;4.80;4.40;;;;;;;;;;5072624;28;20208;-66
2022/03/21 16:35:39;;;;;;;4.97;4.60;;;;;;;;;;5072782;28;20201;-67
2022/03/21 16:38:27;;;;;;;5.33;4.83;;;;;;;;;;5075957;28;20802;-67
2022/03/21 16:41:14;;;;;;;5.17;4.77;;;;;;;;;;5075745;28;20236;-66
2022/03/21 16:44:01;;;;;;;4.57;4.27;;;;;;;;;;5070801;28;20327;-69
2022/03/21 16:46:48;;;;;;;4.93;4.43;;;;;;;;;;5081357;28;20212;-68
2022/03/21 16:49:38;;;;;;;5.30;4.90;;;;;;;;;;5072249;28;20257;-68
2022/03/21 16:52:25;;;;;;;5.17;4.77;;;;;;;;;;5072143;28;20263;-68
2022/03/21 16:55:14;;;;;;;5.07;4.67;;;;;;;;;;5082843;28;20336;-68
2022/03/21 16:58:01;;;;;;;5.10;4.70;;;;;;;;;;5078457;28;20303;-68
2022/03/21 17:00:47;;;;;;;5.00;4.60;;;;;;;;;;5068988;28;20733;-68
2022/03/21 17:03:35;;;;;;;4.80;4.40;;;;;;;;;;5067049;28;20263;-68
2022/03/21 17:06:21;;;;;;;4.80;4.40;;;;;;;;;;5077230;28;20215;-69
2022/03/21 17:09:10;;;;;;;4.60;4.23;;;;;;;;;;5077376;28;20678;-68
2022/03/21 17:11:58;;;;;;;5.07;4.57;;;;;;;;;;5075687;28;20207;-68
2022/03/21 17:14:47;;;;;;;4.80;4.40;;;;;;;;;;5074481;28;20211;-68
2022/03/21 17:17:34;;;;;;;4.97;4.57;;;;;;;;;;5076551;28;20214;-67
2022/03/21 17:23:26;;;;;;;4.87;4.47;;;;;;;;;;5070617;28;20210;-68
2022/03/21 17:26:13;;;;;;;5.00;4.50;;;;;;;;;;5079323;28;20207;-68
2022/03/21 17:29:01;;;;;;;4.50;4.17;;;;;;;;;;5075338;28;20276;-68
2022/03/21 17:31:49;;;;;;;4.57;4.27;;;;;;;;;;5073273;28;20291;-72
2022/03/21 17:34:35;;;;;;;4.50;4.10;;;;;;;;;;5072178;28;20670;-68
2022/03/21 17:37:23;;;;;;;4.37;4.07;;;;;;;;;;5073246;28;20223;-69